Belleville, Mississippi
Current Conditions -  °F | °C
As of 1:53 PM on Sunday 21 Dec 2014 (Local Time) from KHBG Reporting Station
Overcast Overcast  
Wind Chill: 54°   Ceiling: 1200
Heat Index: 54°   Visibility: 10mi
Dew Point: 48°   Wind: 6mph
Humidity: 80%   Direction: 90°E
Pressure: 30.05"   Gusts: NA
Location:  31.0667°N, 89.05°W
Report Text: KHBG 211953Z AUTO 09005KT 10SM OVC012 12/09 A3005 RMK AO2 SLP174 T01220089
Loading
Personal Weather Stations






























Interactive Weather Map New forecast layout! Learn more

10-Day Weather Forecast

Advertisements
Track Severe Weather on mobile